Time;durP1;ratioP1;P1;durP2;ratioP2;P2;SDS_P1;SDS_P2;PMS_P1;PMS_P2;Temp;Humidity;BMP_temperature;BMP_pressure;BME280_temperature;BME280_humidity;BME280_pressure;Samples;Min_cycle;Max_cycle;Signal;HPM_P1;HPM_P2
2023/08/18 00:00:20;;;;;;;4.97;1.60;;;16.90;99.90;;;;;;5065552;28;20040;-82
2023/08/18 00:02:46;;;;;;;6.20;2.20;;;16.80;99.90;;;;;;5051618;28;20114;-82
2023/08/18 00:05:11;;;;;;;4.78;1.90;;;16.90;99.90;;;;;;5053174;28;20047;-82
2023/08/18 00:07:37;;;;;;;6.07;2.10;;;16.90;99.90;;;;;;5064525;28;20480;-82
2023/08/18 00:10:04;;;;;;;7.07;2.20;;;16.90;99.90;;;;;;5073111;28;20051;-82
2023/08/18 00:12:29;;;;;;;4.82;2.00;;;16.90;99.90;;;;;;5058531;28;20549;-82
2023/08/18 00:14:55;;;;;;;3.97;1.80;;;16.90;99.90;;;;;;5072586;28;20040;-82
2023/08/18 00:17:20;;;;;;;6.18;2.13;;;17.00;99.90;;;;;;5058032;28;20040;-82
2023/08/18 00:19:47;;;;;;;5.82;1.85;;;17.00;99.90;;;;;;5056241;28;20089;-82
2023/08/18 00:22:13;;;;;;;6.63;2.38;;;16.90;99.90;;;;;;5055862;28;20063;-82
2023/08/18 00:24:38;;;;;;;6.32;2.42;;;16.90;99.90;;;;;;5056006;28;20173;-82
2023/08/18 00:27:04;;;;;;;4.40;2.03;;;17.00;99.90;;;;;;5070475;28;20511;-82
2023/08/18 00:29:30;;;;;;;6.35;2.05;;;16.90;99.90;;;;;;5052983;28;20426;-82
2023/08/18 00:31:56;;;;;;;5.60;2.15;;;16.80;99.90;;;;;;5035710;28;20041;-82
2023/08/18 00:34:21;;;;;;;5.22;2.03;;;16.90;99.90;;;;;;5072744;28;20028;-82
2023/08/18 00:36:47;;;;;;;5.32;1.80;;;16.90;99.90;;;;;;5072465;28;20118;-82
2023/08/18 00:39:12;;;;;;;5.25;2.03;;;16.90;99.90;;;;;;5066865;28;20033;-82
2023/08/18 00:41:38;;;;;;;7.88;1.90;;;16.90;99.90;;;;;;5068397;28;20039;-80
2023/08/18 00:44:04;;;;;;;5.07;2.13;;;16.90;99.90;;;;;;5023271;28;20037;-82
2023/08/18 00:46:30;;;;;;;6.18;2.00;;;16.90;99.90;;;;;;5051447;28;20461;-82
2023/08/18 00:49:02;;;;;;;5.18;2.00;;;16.80;99.90;;;;;;5068596;28;20028;-82
2023/08/18 00:51:29;;;;;;;4.32;2.00;;;16.90;99.90;;;;;;5072290;28;20098;-82
2023/08/18 00:53:55;;;;;;;6.25;2.42;;;16.80;99.90;;;;;;5048580;28;20040;-82
2023/08/18 00:56:21;;;;;;;5.90;2.08;;;16.80;99.90;;;;;;5072309;28;20493;-82
2023/08/18 00:58:47;;;;;;;9.25;3.10;;;16.80;99.90;;;;;;5053081;28;20047;-82
2023/08/18 01:01:13;;;;;;;7.22;2.90;;;16.80;99.90;;;;;;5072202;28;20131;-82
2023/08/18 01:03:39;;;;;;;7.63;2.45;;;16.90;99.90;;;;;;5055689;28;20048;-82
2023/08/18 01:06:05;;;;;;;6.53;2.60;;;16.80;99.90;;;;;;5051386;28;20044;-82
2023/08/18 01:08:31;;;;;;;8.38;2.70;;;16.80;99.90;;;;;;5048325;28;20406;-83
2023/08/18 01:11:14;;;;;;;5.80;2.45;;;16.80;99.90;;;;;;5055319;28;20048;-82
2023/08/18 01:13:49;;;;;;;7.43;2.50;;;16.80;99.90;;;;;;5070422;28;20489;-83
2023/08/18 01:16:21;;;;;;;7.03;3.20;;;16.90;99.90;;;;;;5053577;28;20041;-83
2023/08/18 01:18:49;;;;;;;7.65;2.70;;;16.80;99.90;;;;;;5046695;28;20044;-83
2023/08/18 01:21:17;;;;;;;6.88;2.90;;;16.80;99.90;;;;;;5067422;28;20097;-83
2023/08/18 01:23:43;;;;;;;6.50;2.90;;;16.80;99.90;;;;;;5055481;28;20407;-83
2023/08/18 01:26:08;;;;;;;6.40;3.30;;;16.80;99.90;;;;;;5040556;28;20047;-82
2023/08/18 01:28:34;;;;;;;5.45;2.80;;;16.70;99.90;;;;;;5061977;28;20463;-83
2023/08/18 01:31:04;;;;;;;6.20;2.80;;;16.80;99.90;;;;;;5055098;28;20045;-83
2023/08/18 01:33:40;;;;;;;7.47;2.92;;;16.80;99.90;;;;;;5034574;28;20040;-82
2023/08/18 01:36:11;;;;;;;6.05;3.10;;;16.70;99.90;;;;;;5055482;28;20111;-83
2023/08/18 01:38:40;;;;;;;6.35;3.15;;;16.70;99.90;;;;;;5051175;28;20033;-83
2023/08/18 01:41:06;;;;;;;6.18;3.10;;;16.70;99.90;;;;;;5067441;28;20083;-83
2023/08/18 01:43:32;;;;;;;5.43;2.88;;;16.60;99.90;;;;;;5072524;28;20111;-83
2023/08/18 01:46:03;;;;;;;6.57;3.10;;;16.70;99.90;;;;;;5059627;28;20514;-83
2023/08/18 01:48:28;;;;;;;7.13;2.83;;;16.70;99.90;;;;;;5069936;28;20048;-83
2023/08/18 01:50:54;;;;;;;5.70;2.72;;;16.70;99.90;;;;;;5045309;28;20033;-83
2023/08/18 01:53:20;;;;;;;6.43;2.78;;;16.70;99.90;;;;;;5067687;28;20037;-83
2023/08/18 01:55:45;;;;;;;6.00;2.60;;;16.60;99.90;;;;;;5051762;28;20044;-83
2023/08/18 01:58:11;;;;;;;5.20;2.70;;;16.70;99.90;;;;;;5058662;28;20369;-83
2023/08/18 02:00:36;;;;;;;5.00;2.45;;;16.80;99.90;;;;;;5058136;28;20501;-83
2023/08/18 02:03:02;;;;;;;5.50;2.60;;;16.80;99.90;;;;;;5067525;28;20037;-82
2023/08/18 02:05:28;;;;;;;5.05;2.70;;;16.80;99.90;;;;;;5051363;28;20365;-83
2023/08/18 02:07:54;;;;;;;6.82;2.45;;;16.80;99.90;;;;;;5059539;28;20048;-83
2023/08/18 02:10:20;;;;;;;5.18;2.60;;;16.70;99.90;;;;;;5058045;28;20035;-82
2023/08/18 02:12:45;;;;;;;6.45;2.80;;;16.70;99.90;;;;;;5069157;28;20419;-83
2023/08/18 02:15:11;;;;;;;6.55;2.70;;;16.70;99.90;;;;;;5058563;28;20072;-82
2023/08/18 02:17:37;;;;;;;6.18;2.58;;;16.70;99.90;;;;;;5051750;28;20035;-82
2023/08/18 02:20:03;;;;;;;5.82;3.15;;;16.60;99.90;;;;;;5026734;28;20041;-83
2023/08/18 02:22:29;;;;;;;7.60;2.92;;;16.60;99.90;;;;;;5052903;28;20045;-82
2023/08/18 02:24:55;;;;;;;6.22;3.53;;;16.70;99.90;;;;;;5067071;28;20132;-82
2023/08/18 02:27:21;;;;;;;7.50;3.10;;;16.70;99.90;;;;;;5057836;28;20048;-82
2023/08/18 02:29:47;;;;;;;7.07;2.78;;;16.70;99.90;;;;;;5052082;28;20025;-82
2023/08/18 02:32:12;;;;;;;6.32;2.67;;;16.70;99.90;;;;;;5051881;28;20025;-83
2023/08/18 02:34:38;;;;;;;6.47;2.33;;;16.70;99.90;;;;;;5036331;28;20037;-83
2023/08/18 02:37:03;;;;;;;6.60;3.20;;;16.70;99.90;;;;;;5056135;28;20072;-83
2023/08/18 02:39:29;;;;;;;8.20;3.03;;;16.70;99.90;;;;;;5051920;28;20029;-83
2023/08/18 02:41:55;;;;;;;9.10;3.50;;;16.70;99.90;;;;;;5054756;28;20032;-83
2023/08/18 02:44:25;;;;;;;8.35;3.67;;;16.70;99.90;;;;;;5069325;28;20125;-83
2023/08/18 02:46:51;;;;;;;9.35;3.65;;;16.70;99.90;;;;;;5053619;28;20041;-83
2023/08/18 02:49:16;;;;;;;9.18;3.70;;;16.70;99.90;;;;;;5053276;28;20040;-83
2023/08/18 02:51:42;;;;;;;7.53;4.10;;;16.70;99.90;;;;;;5055232;28;20060;-82
2023/08/18 02:54:08;;;;;;;8.75;3.83;;;16.70;99.90;;;;;;5067739;28;20481;-82
2023/08/18 02:56:33;;;;;;;8.00;3.30;;;16.70;99.90;;;;;;5048472;28;20047;-82
2023/08/18 02:58:59;;;;;;;8.48;4.07;;;16.70;99.90;;;;;;5073057;28;20044;-83
2023/08/18 03:01:24;;;;;;;6.85;3.58;;;16.70;99.90;;;;;;5058008;28;20040;-82
2023/08/18 03:03:50;;;;;;;5.97;3.30;;;16.70;99.90;;;;;;5037764;28;20043;-82
2023/08/18 03:06:15;;;;;;;7.07;3.30;;;16.70;99.90;;;;;;5060861;28;20097;-82
2023/08/18 03:08:41;;;;;;;6.80;3.28;;;16.80;99.90;;;;;;5039159;28;20047;-82
2023/08/18 03:11:07;;;;;;;7.95;3.45;;;16.80;99.90;;;;;;5056959;28;20036;-82
2023/08/18 03:13:33;;;;;;;8.35;3.60;;;16.80;99.90;;;;;;5037725;28;20036;-82
2023/08/18 03:15:59;;;;;;;9.57;3.70;;;16.80;99.90;;;;;;5037391;28;20481;-82
2023/08/18 03:18:25;;;;;;;6.80;3.30;;;16.80;99.90;;;;;;5052988;28;20128;-82
2023/08/18 03:20:58;;;;;;;9.70;4.40;;;16.80;99.90;;;;;;5054056;28;20033;-82
2023/08/18 03:23:24;;;;;;;7.90;4.13;;;16.80;99.90;;;;;;5054314;28;20045;-83
2023/08/18 03:25:50;;;;;;;6.47;3.40;;;16.80;99.90;;;;;;5036091;28;20040;-82
2023/08/18 03:28:16;;;;;;;8.93;3.90;;;16.80;99.90;;;;;;5052463;28;20044;-82
2023/08/18 03:30:41;;;;;;;6.75;3.53;;;16.70;99.90;;;;;;5037242;28;20079;-82
2023/08/18 03:33:08;;;;;;;7.82;3.75;;;16.80;99.90;;;;;;5036070;28;20032;-82
2023/08/18 03:35:35;;;;;;;6.70;3.38;;;16.80;99.90;;;;;;5070390;28;20556;-83
2023/08/18 03:38:04;;;;;;;10.00;4.05;;;16.80;99.90;;;;;;5062873;28;20032;-82
2023/08/18 03:40:31;;;;;;;6.60;3.75;;;16.80;99.90;;;;;;5055799;28;20037;-83
2023/08/18 03:42:56;;;;;;;8.55;4.15;;;16.80;99.90;;;;;;5058641;28;20044;-82
2023/08/18 03:45:22;;;;;;;7.95;3.80;;;16.80;99.90;;;;;;5055823;28;20044;-83
2023/08/18 03:47:47;;;;;;;7.72;4.25;;;16.80;99.90;;;;;;5045772;28;20385;-82
2023/08/18 03:50:13;;;;;;;6.57;3.92;;;16.80;99.90;;;;;;5051674;28;20044;-82
2023/08/18 03:52:39;;;;;;;7.47;4.22;;;16.80;99.90;;;;;;5048334;28;20032;-82
2023/08/18 03:55:05;;;;;;;7.03;4.28;;;16.80;99.90;;;;;;5045301;28;20032;-82
2023/08/18 03:57:30;;;;;;;8.90;4.50;;;16.80;99.90;;;;;;5051500;28;20041;-82
2023/08/18 03:59:56;;;;;;;7.72;4.47;;;16.70;99.90;;;;;;5041102;28;20041;-82
2023/08/18 04:02:23;;;;;;;8.60;5.20;;;16.70;99.90;;;;;;5051032;28;20081;-82
2023/08/18 04:04:48;;;;;;;9.60;4.90;;;16.70;99.90;;;;;;5063859;28;20496;-82
2023/08/18 04:07:14;;;;;;;9.20;5.13;;;16.70;99.90;;;;;;5054694;28;20048;-82
2023/08/18 04:09:39;;;;;;;9.63;4.97;;;16.60;99.90;;;;;;5058097;28;20047;-82
2023/08/18 04:12:05;;;;;;;8.40;4.95;;;16.70;99.90;;;;;;5064806;28;20036;-82
2023/08/18 04:14:31;;;;;;;9.27;5.10;;;16.60;99.90;;;;;;5061149;28;20040;-82
2023/08/18 04:16:57;;;;;;;9.27;5.35;;;16.70;99.90;;;;;;5035457;28;20037;-82
2023/08/18 04:19:22;;;;;;;10.55;5.68;;;16.70;99.90;;;;;;5056842;28;20033;-82
2023/08/18 04:21:48;;;;;;;9.05;4.47;;;16.70;99.90;;;;;;5054093;28;20068;-83
2023/08/18 04:24:13;;;;;;;13.20;6.70;;;16.80;99.90;;;;;;5064665;28;20041;-82
2023/08/18 04:26:39;;;;;;;11.25;6.25;;;16.80;99.90;;;;;;5066903;28;20518;-82
2023/08/18 04:29:05;;;;;;;10.48;5.85;;;16.70;99.90;;;;;;5062122;28;20037;-82
2023/08/18 04:31:31;;;;;;;11.30;6.03;;;16.70;99.90;;;;;;5062683;28;20396;-82
2023/08/18 04:33:57;;;;;;;12.93;6.75;;;16.70;99.90;;;;;;5045917;28;20060;-82
2023/08/18 04:36:23;;;;;;;13.68;6.38;;;16.60;99.90;;;;;;5052372;28;20037;-82
2023/08/18 04:38:48;;;;;;;9.82;5.97;;;16.60;99.90;;;;;;5037496;28;20043;-82
2023/08/18 04:41:14;;;;;;;10.80;6.10;;;16.70;99.90;;;;;;5069018;28;20042;-82
2023/08/18 04:43:39;;;;;;;10.23;6.68;;;16.70;99.90;;;;;;5065567;28;20044;-82
2023/08/18 04:46:05;;;;;;;10.63;6.53;;;16.70;99.90;;;;;;5066158;28;20047;-82
2023/08/18 04:48:31;;;;;;;11.30;6.90;;;16.70;99.90;;;;;;5068818;28;20037;-82
2023/08/18 04:50:56;;;;;;;10.63;6.13;;;16.70;99.90;;;;;;5059523;28;20025;-82
2023/08/18 04:53:22;;;;;;;11.18;6.65;;;16.90;99.90;;;;;;5060365;28;20554;-82
2023/08/18 04:55:47;;;;;;;10.77;7.28;;;16.80;99.90;;;;;;5053453;28;20388;-81
2023/08/18 04:58:13;;;;;;;11.70;7.18;;;16.80;99.90;;;;;;5070880;28;20548;-82
2023/08/18 05:00:42;;;;;;;10.32;6.35;;;16.70;99.90;;;;;;5042802;28;20405;-82
2023/08/18 05:03:08;;;;;;;10.25;6.35;;;16.80;99.90;;;;;;5062384;28;20044;-82
2023/08/18 05:05:38;;;;;;;11.13;6.53;;;16.70;99.90;;;;;;5054703;28;20118;-82
2023/08/18 05:08:04;;;;;;;10.93;6.63;;;16.70;99.90;;;;;;5042273;28;20622;-81
2023/08/18 05:10:30;;;;;;;11.70;6.40;;;16.60;99.90;;;;;;5068319;28;20036;-82
2023/08/18 05:12:55;;;;;;;10.40;6.43;;;16.70;99.90;;;;;;5058380;28;20043;-82
2023/08/18 05:15:22;;;;;;;10.32;6.72;;;16.80;99.90;;;;;;5059009;28;20037;-82
2023/08/18 05:17:48;;;;;;;10.63;6.47;;;16.80;99.90;;;;;;5061114;28;20164;-82
2023/08/18 05:20:14;;;;;;;10.75;6.30;;;16.70;99.90;;;;;;5052538;28;20063;-82
2023/08/18 05:22:40;;;;;;;12.65;6.18;;;16.80;99.90;;;;;;5078687;28;20040;-81
2023/08/18 05:25:07;;;;;;;11.63;7.05;;;16.80;99.90;;;;;;5068995;28;20032;-82
2023/08/18 05:27:34;;;;;;;11.25;6.50;;;16.80;99.90;;;;;;5038922;28;20057;-81
2023/08/18 05:30:00;;;;;;;11.40;6.30;;;16.70;99.90;;;;;;5060100;28;20127;-81
2023/08/18 05:32:26;;;;;;;11.55;6.22;;;16.80;99.90;;;;;;5049959;28;20139;-81
2023/08/18 05:34:55;;;;;;;10.60;5.95;;;16.80;99.90;;;;;;5034164;28;20041;-81
2023/08/18 05:37:21;;;;;;;10.75;6.20;;;16.80;99.90;;;;;;5054805;28;20094;-81
2023/08/18 05:39:47;;;;;;;12.82;6.82;;;16.80;99.90;;;;;;5034710;28;20555;-81
2023/08/18 05:42:13;;;;;;;10.07;6.80;;;16.80;99.90;;;;;;5054826;28;20040;-81
2023/08/18 05:44:38;;;;;;;12.40;6.43;;;16.80;99.90;;;;;;5038384;28;20072;-81
2023/08/18 05:47:04;;;;;;;11.48;7.03;;;16.80;99.90;;;;;;5071495;28;20033;-81
2023/08/18 05:49:30;;;;;;;11.93;6.72;;;16.80;99.90;;;;;;5054111;28;20033;-81
2023/08/18 05:51:55;;;;;;;10.40;7.10;;;16.80;99.90;;;;;;5060549;28;20033;-81
2023/08/18 05:54:21;;;;;;;12.15;6.93;;;16.80;99.90;;;;;;5038183;28;20128;-81
2023/08/18 05:56:46;;;;;;;11.02;6.55;;;16.80;99.90;;;;;;5067860;28;20060;-81
2023/08/18 05:59:12;;;;;;;9.38;6.10;;;16.80;99.90;;;;;;5063149;28;20041;-81
2023/08/18 06:01:37;;;;;;;10.77;6.20;;;16.80;99.90;;;;;;5039661;28;20040;-81
2023/08/18 06:04:03;;;;;;;11.05;6.55;;;16.80;99.90;;;;;;5034880;28;20075;-81
2023/08/18 06:06:29;;;;;;;15.60;7.05;;;16.80;99.90;;;;;;5036940;28;20509;-81
2023/08/18 06:08:55;;;;;;;14.60;6.68;;;16.80;99.90;;;;;;5046546;28;20133;-81
2023/08/18 06:11:22;;;;;;;11.77;6.93;;;16.90;99.90;;;;;;5049433;28;20139;-81
2023/08/18 06:13:47;;;;;;;12.02;7.85;;;16.80;99.90;;;;;;5040725;28;20045;-81
2023/08/18 06:16:13;;;;;;;11.27;6.75;;;16.80;99.90;;;;;;5045320;28;20428;-81
2023/08/18 06:18:38;;;;;;;10.98;6.70;;;16.80;99.90;;;;;;5034086;28;20040;-81
2023/08/18 06:21:04;;;;;;;12.07;7.07;;;16.80;99.90;;;;;;5041391;28;20051;-81
2023/08/18 06:23:30;;;;;;;10.75;6.13;;;16.80;99.90;;;;;;5053123;28;20040;-81
2023/08/18 06:25:57;;;;;;;9.48;6.13;;;16.90;99.90;;;;;;5050061;28;20372;-81
2023/08/18 06:28:24;;;;;;;12.00;6.18;;;16.80;99.90;;;;;;5032943;28;20048;-81
2023/08/18 06:30:49;;;;;;;9.43;6.28;;;16.90;99.90;;;;;;5059230;28;20114;-81
2023/08/18 06:33:15;;;;;;;12.18;6.32;;;16.90;99.90;;;;;;5060817;28;20060;-81
2023/08/18 06:35:40;;;;;;;10.73;6.28;;;17.00;99.90;;;;;;5038295;28;20037;-81
2023/08/18 06:38:06;;;;;;;11.15;6.97;;;16.90;99.90;;;;;;5063442;28;20041;-81
2023/08/18 06:40:31;;;;;;;12.63;6.43;;;16.90;99.90;;;;;;5055502;28;20040;-81
2023/08/18 06:42:57;;;;;;;10.57;5.90;;;17.00;99.90;;;;;;5066771;28;20437;-81
2023/08/18 06:45:22;;;;;;;11.90;6.20;;;17.00;99.90;;;;;;5045394;28;20071;-82
2023/08/18 06:47:48;;;;;;;12.40;6.68;;;17.00;99.90;;;;;;5058395;28;20400;-80
2023/08/18 06:50:14;;;;;;;12.93;6.35;;;17.00;99.90;;;;;;5055983;28;20040;-80
2023/08/18 06:52:39;;;;;;;12.48;6.65;;;17.00;99.90;;;;;;5057601;28;20078;-79
2023/08/18 06:55:05;;;;;;;13.20;6.00;;;17.10;99.90;;;;;;5039745;28;20116;-79
2023/08/18 06:57:31;;;;;;;10.05;5.55;;;17.10;99.90;;;;;;5054515;28;20041;-79
2023/08/18 06:59:56;;;;;;;12.73;6.07;;;17.20;99.90;;;;;;5057069;28;20511;-77
2023/08/18 07:02:22;;;;;;;11.07;6.40;;;17.20;99.90;;;;;;5039356;28;20048;-81
2023/08/18 07:04:49;;;;;;;11.48;6.22;;;17.20;99.90;;;;;;5058373;28;20079;-81
2023/08/18 07:07:15;;;;;;;12.85;6.38;;;17.30;99.90;;;;;;5036649;28;20126;-83
2023/08/18 07:09:40;;;;;;;10.98;6.32;;;17.30;99.90;;;;;;5037471;28;20041;-79
2023/08/18 07:12:06;;;;;;;12.85;6.30;;;17.40;99.90;;;;;;5035446;28;20040;-72
2023/08/18 07:14:31;;;;;;;15.45;6.70;;;17.40;99.90;;;;;;5054730;28;20136;-82
2023/08/18 07:16:58;;;;;;;11.70;6.68;;;17.40;99.90;;;;;;5046859;28;20115;-82
2023/08/18 07:19:23;;;;;;;16.88;7.85;;;17.40;99.90;;;;;;5053871;28;20044;-82
2023/08/18 07:21:49;;;;;;;18.20;7.85;;;17.40;99.90;;;;;;5044800;28;20037;-82
2023/08/18 07:24:14;;;;;;;16.67;7.30;;;17.40;99.90;;;;;;5053662;28;20033;-82
2023/08/18 07:26:40;;;;;;;14.73;7.32;;;17.40;99.90;;;;;;5067827;28;20516;-81
2023/08/18 07:29:05;;;;;;;17.10;7.50;;;17.50;99.90;;;;;;5039502;28;20405;-82
2023/08/18 07:31:31;;;;;;;19.70;7.88;;;17.50;99.90;;;;;;5041217;28;20032;-82
2023/08/18 07:33:58;;;;;;;17.20;7.47;;;17.60;99.90;;;;;;5051566;28;20037;-82
2023/08/18 07:36:23;;;;;;;19.25;7.75;;;17.50;99.90;;;;;;5024938;28;20120;-82
2023/08/18 07:38:49;;;;;;;19.08;8.73;;;17.60;99.90;;;;;;5080544;28;20123;-82
2023/08/18 07:41:14;;;;;;;17.73;8.23;;;17.60;99.90;;;;;;5059979;28;20090;-82
2023/08/18 07:43:40;;;;;;;22.08;9.88;;;17.60;99.90;;;;;;5067046;28;20059;-82
2023/08/18 07:46:06;;;;;;;15.57;7.03;;;17.60;99.90;;;;;;5070534;28;20043;-82
2023/08/18 07:48:31;;;;;;;19.42;7.90;;;17.60;99.90;;;;;;5036656;28;20494;-82
2023/08/18 07:50:57;;;;;;;17.58;7.55;;;17.60;99.90;;;;;;5018701;28;20047;-82
2023/08/18 07:53:22;;;;;;;23.25;9.13;;;17.60;99.90;;;;;;5057593;28;20048;-82
2023/08/18 07:55:48;;;;;;;22.92;9.27;;;17.50;99.90;;;;;;5069477;28;20048;-82
2023/08/18 07:58:14;;;;;;;19.30;8.95;;;17.50;99.90;;;;;;5061104;28;20066;-83
2023/08/18 08:00:39;;;;;;;23.00;9.32;;;17.50;99.90;;;;;;5067724;28;20412;-82
2023/08/18 08:03:05;;;;;;;21.92;9.27;;;17.50;99.90;;;;;;5071208;28;20049;-82
2023/08/18 08:05:32;;;;;;;18.90;8.20;;;17.60;99.90;;;;;;5050178;28;20048;-83
2023/08/18 08:07:58;;;;;;;18.48;8.18;;;17.60;99.90;;;;;;5058067;28;20025;-82
2023/08/18 08:10:24;;;;;;;19.33;8.18;;;17.60;99.90;;;;;;5049349;28;20480;-82
2023/08/18 08:12:49;;;;;;;17.52;7.93;;;17.70;99.90;;;;;;5056696;28;20047;-82
2023/08/18 08:15:16;;;;;;;18.73;8.15;;;17.70;99.90;;;;;;5043935;28;20040;-82
2023/08/18 08:17:41;;;;;;;17.75;8.32;;;17.80;99.90;;;;;;5061661;28;20496;-82
2023/08/18 08:20:11;;;;;;;18.90;7.65;;;17.80;99.90;;;;;;5061090;28;20041;-82
2023/08/18 08:22:37;;;;;;;17.88;7.60;;;17.80;99.90;;;;;;5054613;28;20128;-82
2023/08/18 08:25:03;;;;;;;16.20;7.55;;;17.80;99.90;;;;;;5051567;28;20040;-82
2023/08/18 08:27:29;;;;;;;17.42;7.60;;;17.90;99.90;;;;;;5067544;28;20061;-82
2023/08/18 08:29:54;;;;;;;16.08;7.55;;;18.00;99.90;;;;;;5054473;28;20123;-82
2023/08/18 08:32:20;;;;;;;15.13;7.03;;;18.00;99.90;;;;;;5048435;28;20033;-82
2023/08/18 08:34:49;;;;;;;13.73;7.30;;;18.00;99.90;;;;;;5049480;28;20029;-82
2023/08/18 08:37:16;;;;;;;14.57;6.85;;;18.10;99.90;;;;;;5049062;28;20509;-82
2023/08/18 08:39:41;;;;;;;13.07;6.45;;;18.10;99.90;;;;;;5057597;28;20029;-82
2023/08/18 08:42:08;;;;;;;16.92;7.28;;;18.20;99.90;;;;;;5046620;28;20479;-82
2023/08/18 08:44:33;;;;;;;12.48;6.93;;;18.10;99.90;;;;;;5068730;28;20128;-82
2023/08/18 08:47:02;;;;;;;15.30;7.45;;;18.20;99.90;;;;;;5061925;28;20553;-82
2023/08/18 08:49:30;;;;;;;12.98;6.57;;;18.20;99.90;;;;;;5016062;28;20049;-82
2023/08/18 08:52:01;;;;;;;15.38;7.40;;;18.20;99.90;;;;;;5069858;28;20037;-81
2023/08/18 08:54:30;;;;;;;13.10;6.85;;;18.30;99.90;;;;;;5053638;28;20037;-83
2023/08/18 08:56:58;;;;;;;13.93;7.93;;;18.30;99.90;;;;;;5045225;28;20040;-82
2023/08/18 08:59:24;;;;;;;13.63;6.43;;;18.30;99.90;;;;;;5066443;28;20048;-82
2023/08/18 09:01:52;;;;;;;14.95;7.70;;;18.30;99.90;;;;;;5044956;28;20178;-86
2023/08/18 09:04:18;;;;;;;15.85;7.43;;;18.40;99.90;;;;;;5068408;28;20044;-86
2023/08/18 09:06:45;;;;;;;13.05;7.57;;;18.40;99.90;;;;;;5070507;28;20119;-86
2023/08/18 09:09:11;;;;;;;14.15;8.20;;;18.40;99.90;;;;;;5062055;28;20155;-85
2023/08/18 09:11:40;;;;;;;15.60;7.35;;;18.50;99.90;;;;;;5052563;28;20032;-85
2023/08/18 09:14:06;;;;;;;16.80;8.65;;;18.50;99.90;;;;;;5049301;28;20444;-84
2023/08/18 09:16:31;;;;;;;12.98;7.53;;;18.60;99.90;;;;;;5052204;28;20032;-85
2023/08/18 09:18:57;;;;;;;16.45;8.13;;;18.70;99.90;;;;;;5052918;28;20528;-86
2023/08/18 09:21:23;;;;;;;16.42;8.23;;;18.70;99.90;;;;;;5054125;28;20075;-86
2023/08/18 09:23:55;;;;;;;17.02;8.30;;;18.80;99.90;;;;;;5051291;28;20029;-85
2023/08/18 09:26:21;;;;;;;15.57;7.47;;;18.80;99.90;;;;;;5035098;28;20041;-85
2023/08/18 09:28:46;;;;;;;15.05;7.07;;;18.90;99.90;;;;;;5049786;28;20110;-85
2023/08/18 09:31:12;;;;;;;13.35;7.35;;;19.00;99.90;;;;;;5044682;28;20029;-85
2023/08/18 09:33:37;;;;;;;16.98;8.00;;;19.10;99.90;;;;;;5038242;28;20126;-86
2023/08/18 09:36:03;;;;;;;13.82;8.02;;;19.10;99.90;;;;;;5031565;28;20121;-85
2023/08/18 09:38:38;;;;;;;16.02;8.25;;;19.20;99.90;;;;;;5049617;28;20037;-85
2023/08/18 09:41:04;;;;;;;12.10;7.22;;;19.20;99.90;;;;;;5071375;28;20166;-85
2023/08/18 09:43:30;;;;;;;13.07;7.03;;;19.30;99.90;;;;;;5051802;28;20041;-85
2023/08/18 09:45:57;;;;;;;10.90;6.75;;;19.40;99.90;;;;;;5034634;28;20370;-85
2023/08/18 09:48:26;;;;;;;13.63;7.10;;;19.50;99.90;;;;;;5028583;28;20722;-84
2023/08/18 09:50:56;;;;;;;12.95;8.57;;;19.60;99.90;;;;;;5045868;28;20429;-85
2023/08/18 09:53:29;;;;;;;12.18;7.60;;;19.60;99.90;;;;;;5047685;28;20048;-84
2023/08/18 09:56:03;;;;;;;15.38;7.57;;;19.60;99.90;;;;;;5051655;28;20029;-86
2023/08/18 09:58:52;;;;;;;12.40;7.82;;;19.60;99.90;;;;;;5052578;28;20048;-85
2023/08/18 10:01:18;;;;;;;12.07;7.50;;;19.60;99.90;;;;;;5046125;28;20481;-86
2023/08/18 10:03:46;;;;;;;13.93;7.97;;;19.60;99.90;;;;;;5049616;28;20029;-85
2023/08/18 10:06:12;;;;;;;11.32;7.40;;;19.60;99.90;;;;;;5031351;28;20033;-85
2023/08/18 10:08:39;;;;;;;10.98;7.05;;;19.70;99.90;;;;;;5055892;28;20078;-86
2023/08/18 10:11:05;;;;;;;10.68;6.63;;;19.70;99.90;;;;;;5067017;28;20067;-86
2023/08/18 10:13:33;;;;;;;12.82;7.18;;;19.80;99.90;;;;;;5073310;28;20032;-85
2023/08/18 10:16:01;;;;;;;12.15;7.97;;;19.80;99.90;;;;;;5039819;28;20043;-85
2023/08/18 10:18:27;;;;;;;13.15;7.47;;;19.80;99.90;;;;;;5038638;28;20102;-86
2023/08/18 10:20:55;;;;;;;12.77;8.18;;;19.90;99.90;;;;;;5058047;28;20627;-85
2023/08/18 10:23:24;;;;;;;13.02;8.05;;;19.80;99.90;;;;;;5034184;28;20509;-86
2023/08/18 10:25:51;;;;;;;11.75;7.63;;;19.90;99.90;;;;;;5053426;28;20032;-85
2023/08/18 10:28:22;;;;;;;12.38;7.28;;;19.90;99.90;;;;;;5056413;28;20049;-86
2023/08/18 10:31:14;;;;;;;13.03;7.90;;;19.90;99.90;;;;;;5056675;28;20036;-85
2023/08/18 10:33:43;;;;;;;11.75;8.30;;;19.90;99.90;;;;;;5044145;28;20045;-85
2023/08/18 10:36:12;;;;;;;11.95;8.20;;;20.00;99.90;;;;;;5059372;28;20033;-85
2023/08/18 10:38:41;;;;;;;12.00;8.30;;;20.00;99.90;;;;;;5063652;28;20397;-85
2023/08/18 10:41:08;;;;;;;12.75;8.00;;;20.00;99.90;;;;;;5039054;28;20033;-85
2023/08/18 10:43:51;;;;;;;12.60;7.78;;;20.00;99.90;;;;;;5066579;28;20079;-80
2023/08/18 10:46:17;;;;;;;11.88;7.28;;;20.10;99.90;;;;;;5046113;28;20037;-80
2023/08/18 10:48:43;;;;;;;12.90;7.18;;;20.10;99.90;;;;;;5058004;28;20402;-84
2023/08/18 10:51:09;;;;;;;13.80;7.60;;;20.10;99.90;;;;;;5056693;28;20125;-83
2023/08/18 10:53:37;;;;;;;11.13;7.15;;;20.10;99.90;;;;;;5055992;28;20119;-82
2023/08/18 10:56:06;;;;;;;10.70;7.72;;;20.10;99.90;;;;;;5034336;28;20045;-83
2023/08/18 10:58:32;;;;;;;11.38;7.88;;;20.20;99.90;;;;;;5057383;28;20067;-83
2023/08/18 11:00:59;;;;;;;13.73;7.68;;;20.20;99.90;;;;;;5056161;28;20102;-83
2023/08/18 11:03:25;;;;;;;11.80;8.50;;;20.20;99.90;;;;;;5044296;28;20037;-77
2023/08/18 11:05:51;;;;;;;15.23;8.68;;;20.30;99.90;;;;;;5063374;28;20036;-77
2023/08/18 11:08:17;;;;;;;11.32;8.57;;;20.30;99.90;;;;;;5052200;28;20497;-77
2023/08/18 11:10:43;;;;;;;10.57;8.00;;;20.40;99.90;;;;;;5055207;28;20123;-81
2023/08/18 11:13:23;;;;;;;10.50;7.85;;;20.50;99.90;;;;;;5050764;28;20083;-81
2023/08/18 11:15:53;;;;;;;12.50;8.93;;;20.50;99.90;;;;;;5047371;28;20493;-83
2023/08/18 11:18:21;;;;;;;11.50;8.00;;;20.60;99.90;;;;;;5050520;28;20041;-82
2023/08/18 11:20:48;;;;;;;10.82;7.70;;;20.80;99.90;;;;;;5074177;28;20072;-81
2023/08/18 11:23:14;;;;;;;9.93;7.63;;;20.80;99.90;;;;;;5065694;28;20071;-76
2023/08/18 11:25:39;;;;;;;11.75;8.93;;;20.80;99.90;;;;;;5070313;28;20492;-76
2023/08/18 11:28:05;;;;;;;11.35;8.32;;;20.90;99.90;;;;;;5037898;28;20053;-76
2023/08/18 11:30:32;;;;;;;10.32;8.05;;;20.90;99.90;;;;;;5044699;28;20150;-76
2023/08/18 11:32:58;;;;;;;11.88;7.70;;;21.00;99.90;;;;;;5050883;28;20075;-76
2023/08/18 11:35:25;;;;;;;12.35;8.05;;;21.00;99.90;;;;;;5069084;28;20113;-76
2023/08/18 11:37:52;;;;;;;11.70;8.48;;;21.10;99.90;;;;;;5046898;28;20049;-76
2023/08/18 11:40:21;;;;;;;11.93;9.57;;;21.10;99.90;;;;;;5067050;28;20091;-76
2023/08/18 11:42:49;;;;;;;13.50;9.38;;;21.10;99.90;;;;;;5062243;28;20417;-76
2023/08/18 11:45:19;;;;;;;11.43;8.73;;;21.20;99.90;;;;;;5068394;28;20041;-76
2023/08/18 11:47:47;;;;;;;12.40;8.60;;;21.10;99.90;;;;;;5061504;28;20041;-76
2023/08/18 11:50:19;;;;;;;11.50;8.63;;;21.10;99.90;;;;;;5046442;28;20051;-76
2023/08/18 11:52:46;;;;;;;11.80;8.38;;;21.20;99.90;;;;;;5065690;28;20041;-76
2023/08/18 11:55:13;;;;;;;11.85;9.27;;;21.20;99.90;;;;;;5053567;28;20037;-76
2023/08/18 11:57:41;;;;;;;13.00;9.65;;;21.30;99.90;;;;;;5063584;28;21000;-76
2023/08/18 12:00:13;;;;;;;14.13;9.25;;;21.40;99.90;;;;;;5044085;28;20047;-76
2023/08/18 12:02:46;;;;;;;12.85;10.38;;;21.50;99.90;;;;;;5050468;28;20452;-76
2023/08/18 12:05:23;;;;;;;13.85;10.07;;;21.50;99.90;;;;;;5026051;28;20128;-76
2023/08/18 12:07:53;;;;;;;12.68;9.80;;;21.70;99.90;;;;;;5041393;28;20045;-76
2023/08/18 12:10:20;;;;;;;12.88;9.70;;;21.80;99.90;;;;;;5060593;28;20079;-76
2023/08/18 12:12:56;;;;;;;13.70;10.98;;;21.90;99.90;;;;;;5051392;28;20037;-76
2023/08/18 12:15:24;;;;;;;13.80;10.48;;;22.00;99.90;;;;;;5044039;28;20069;-76
2023/08/18 12:17:50;;;;;;;14.50;10.48;;;22.00;99.90;;;;;;5052312;28;20040;-76
2023/08/18 12:20:18;;;;;;;18.52;11.68;;;22.00;99.90;;;;;;5052124;28;20095;-76
2023/08/18 12:22:48;;;;;;;14.35;11.05;;;22.20;99.90;;;;;;5049101;28;20078;-76
2023/08/18 12:25:14;;;;;;;13.57;12.18;;;22.30;99.90;;;;;;5033931;28;20052;-76
2023/08/18 12:27:40;;;;;;;14.90;10.52;;;22.50;99.90;;;;;;5049117;28;20052;-78
2023/08/18 12:30:07;;;;;;;14.73;11.20;;;22.60;99.90;;;;;;5055153;28;20493;-77
2023/08/18 12:32:33;;;;;;;14.88;11.95;;;22.80;99.90;;;;;;5052395;28;20068;-77
2023/08/18 12:34:58;;;;;;;14.55;10.60;;;22.80;99.90;;;;;;5056525;28;20498;-79
2023/08/18 12:37:24;;;;;;;14.07;10.30;;;22.90;99.90;;;;;;5015499;28;20525;-76